createdAt,value
2018-07-08T00:01:18.087Z,16.34
2018-07-08T00:03:46.763Z,16.38
2018-07-08T00:06:15.188Z,16.10
2018-07-08T00:08:43.699Z,16.02
2018-07-08T00:11:12.118Z,16.05
2018-07-08T00:13:40.612Z,15.85
2018-07-08T00:16:09.065Z,15.95
2018-07-08T00:18:37.582Z,15.86
2018-07-08T00:21:06.111Z,15.88
2018-07-08T00:23:34.731Z,15.84
2018-07-08T00:26:03.241Z,15.40
2018-07-08T00:28:31.724Z,15.47
2018-07-08T00:31:00.389Z,15.61
2018-07-08T00:33:29.061Z,15.65
2018-07-08T00:35:57.554Z,15.65
2018-07-08T00:38:25.972Z,15.74
2018-07-08T00:40:54.427Z,16.04
2018-07-08T00:43:22.872Z,16.02
2018-07-08T00:45:51.564Z,15.97
2018-07-08T00:48:20.740Z,15.94
2018-07-08T00:50:49.147Z,16.00
2018-07-08T00:53:17.611Z,16.03
2018-07-08T00:55:46.184Z,16.02
2018-07-08T00:58:14.602Z,16.12
2018-07-08T01:00:43.234Z,15.77
2018-07-08T01:03:11.690Z,15.84
2018-07-08T01:05:40.151Z,16.22
2018-07-08T01:08:08.762Z,16.10
2018-07-08T01:10:37.267Z,16.29
2018-07-08T01:13:05.805Z,16.36
2018-07-08T01:15:34.254Z,16.37
2018-07-08T01:18:02.712Z,16.58
2018-07-08T01:20:31.260Z,16.62
2018-07-08T01:22:59.693Z,16.68
2018-07-08T01:25:39.263Z,16.67
2018-07-08T01:28:07.716Z,16.46
2018-07-08T01:30:36.154Z,16.41
2018-07-08T01:33:04.679Z,16.63
2018-07-08T01:35:33.185Z,16.71
2018-07-08T01:38:01.752Z,16.42
2018-07-08T01:40:30.203Z,16.53
2018-07-08T01:42:58.671Z,16.63
2018-07-08T01:45:27.151Z,16.36
2018-07-08T01:47:55.589Z,16.53
2018-07-08T01:50:24.063Z,16.52
2018-07-08T01:52:53.250Z,16.49
2018-07-08T01:55:21.772Z,16.71
2018-07-08T01:57:50.259Z,16.70
2018-07-08T02:00:18.751Z,16.69
2018-07-08T02:02:47.253Z,16.57
2018-07-08T02:05:15.774Z,16.78
2018-07-08T02:07:44.209Z,16.78
2018-07-08T02:10:12.656Z,16.78
2018-07-08T02:12:41.141Z,16.80
2018-07-08T02:15:09.608Z,16.84
2018-07-08T02:17:38.124Z,16.91
2018-07-08T02:20:07.141Z,16.97
2018-07-08T02:22:35.666Z,17.03
2018-07-08T02:25:04.839Z,16.86
2018-07-08T02:27:33.363Z,16.80
2018-07-08T02:30:02.093Z,16.88
2018-07-08T02:32:30.714Z,16.94
2018-07-08T02:34:59.364Z,16.95
2018-07-08T02:37:27.850Z,16.96
2018-07-08T02:39:56.312Z,16.99
2018-07-08T02:42:25.051Z,16.81
2018-07-08T02:44:53.492Z,16.79
2018-07-08T02:47:22.156Z,16.89
2018-07-08T02:49:51.060Z,17.00
2018-07-08T02:52:20.490Z,16.98
2018-07-08T02:54:49.002Z,16.90
2018-07-08T02:57:18.042Z,16.80
2018-07-08T02:59:46.858Z,16.85
2018-07-08T03:02:15.356Z,16.90
2018-07-08T03:04:43.776Z,16.89
2018-07-08T03:07:12.256Z,17.14
2018-07-08T03:09:40.692Z,17.06
2018-07-08T03:12:09.141Z,16.87
2018-07-08T03:14:37.595Z,16.87
2018-07-08T03:17:06.114Z,16.95
2018-07-08T03:19:34.593Z,17.01
2018-07-08T03:22:04.040Z,17.03
2018-07-08T03:27:31.360Z,16.86
2018-07-08T03:29:59.828Z,17.27
2018-07-08T03:32:28.253Z,16.81
2018-07-08T03:34:56.722Z,16.86
2018-07-08T03:37:25.213Z,16.91
2018-07-08T03:39:53.661Z,16.82
2018-07-08T03:42:22.104Z,16.91
2018-07-08T03:44:50.511Z,16.84
2018-07-08T03:47:19.529Z,16.94
2018-07-08T03:49:47.955Z,16.84
2018-07-08T03:52:16.364Z,16.93
2018-07-08T03:54:44.791Z,16.94
2018-07-08T03:57:13.206Z,16.94
2018-07-08T03:59:41.679Z,16.98
2018-07-08T04:02:10.132Z,16.98
2018-07-08T04:04:38.653Z,17.00
2018-07-08T04:07:07.160Z,17.10
2018-07-08T04:09:35.591Z,17.07
2018-07-08T04:12:04.078Z,17.15
2018-07-08T04:14:32.531Z,17.13
2018-07-08T04:17:01.011Z,17.19
2018-07-08T04:19:29.442Z,17.29
2018-07-08T04:21:57.902Z,17.45
2018-07-08T04:24:26.604Z,17.51
2018-07-08T04:26:55.290Z,17.53
2018-07-08T04:29:23.785Z,17.51
2018-07-08T04:31:52.197Z,17.63
2018-07-08T04:34:20.764Z,17.66
2018-07-08T04:36:49.202Z,17.73
2018-07-08T04:39:17.652Z,17.83
2018-07-08T04:41:46.095Z,17.84
2018-07-08T04:44:14.640Z,17.88
2018-07-08T04:46:43.084Z,17.87
2018-07-08T04:49:11.530Z,17.85
2018-07-08T04:51:39.948Z,17.94
2018-07-08T04:54:08.430Z,18.05
2018-07-08T04:56:36.859Z,18.07
2018-07-08T04:59:05.510Z,18.03
2018-07-08T05:01:33.939Z,18.01
2018-07-08T05:04:02.379Z,18.17
2018-07-08T05:06:30.855Z,18.20
2018-07-08T05:08:59.299Z,18.18
2018-07-08T05:11:27.709Z,18.24
2018-07-08T05:13:56.128Z,18.40
2018-07-08T05:16:24.607Z,18.44
2018-07-08T05:18:53.043Z,18.52
2018-07-08T05:21:21.532Z,18.36
2018-07-08T05:23:49.955Z,18.52
2018-07-08T05:26:18.431Z,18.90
2018-07-08T05:28:46.979Z,18.72
2018-07-08T05:31:15.424Z,18.67
2018-07-08T05:33:43.883Z,18.89
2018-07-08T05:36:12.326Z,19.06
2018-07-08T05:38:40.743Z,19.00
2018-07-08T05:41:09.210Z,20.01
2018-07-08T05:43:37.688Z,20.10
2018-07-08T05:46:06.200Z,20.66
2018-07-08T05:48:34.603Z,20.59
2018-07-08T05:51:03.015Z,20.97
2018-07-08T05:53:31.751Z,21.13
2018-07-08T05:56:00.177Z,20.57
2018-07-08T05:58:28.651Z,20.31
2018-07-08T06:00:57.259Z,20.74
2018-07-08T06:03:25.679Z,20.32
2018-07-08T06:05:54.123Z,20.97
2018-07-08T06:08:22.544Z,21.30
2018-07-08T06:10:51.010Z,21.67
2018-07-08T06:13:19.428Z,21.63
2018-07-08T06:15:48.124Z,21.68
2018-07-08T06:18:16.545Z,21.08
2018-07-08T06:20:44.996Z,20.67
2018-07-08T06:23:13.467Z,20.70
2018-07-08T06:25:41.931Z,20.70
2018-07-08T06:28:10.546Z,19.99
2018-07-08T06:30:38.931Z,20.33
2018-07-08T06:33:07.311Z,20.40
2018-07-08T06:35:35.746Z,20.02
2018-07-08T06:38:04.171Z,20.35
2018-07-08T06:40:32.660Z,20.43
2018-07-08T06:43:01.124Z,20.53
2018-07-08T06:45:29.669Z,20.63
2018-07-08T06:47:58.711Z,20.43
2018-07-08T06:50:27.515Z,20.45
2018-07-08T06:52:56.005Z,20.41
2018-07-08T06:55:24.641Z,20.31
2018-07-08T06:57:53.436Z,20.26
2018-07-08T07:00:21.849Z,20.58
2018-07-08T07:02:50.273Z,20.44
2018-07-08T07:05:18.739Z,20.71
2018-07-08T07:07:47.200Z,21.00
2018-07-08T07:10:15.664Z,21.47
2018-07-08T07:12:44.077Z,21.29
2018-07-08T07:15:12.542Z,21.40
2018-07-08T07:17:41.015Z,21.63
2018-07-08T07:20:09.684Z,22.09
2018-07-08T07:22:38.186Z,21.94
2018-07-08T07:25:06.886Z,22.01
2018-07-08T07:27:35.345Z,22.21
2018-07-08T07:30:03.864Z,22.60
2018-07-08T07:32:32.337Z,22.72
2018-07-08T07:35:00.771Z,22.68
2018-07-08T07:37:29.287Z,22.82
2018-07-08T07:39:57.717Z,23.09
2018-07-08T07:42:26.225Z,23.08
2018-07-08T07:44:54.724Z,23.38
2018-07-08T07:47:23.271Z,23.65
2018-07-08T07:49:51.712Z,23.89
2018-07-08T07:52:20.201Z,23.68
2018-07-08T07:54:48.621Z,23.44
2018-07-08T07:57:17.050Z,22.98
2018-07-08T07:59:45.531Z,22.82
2018-07-08T08:02:14.299Z,22.97
2018-07-08T08:04:43.038Z,22.96
2018-07-08T08:07:11.444Z,23.34
2018-07-08T08:09:40.313Z,23.10
2018-07-08T08:12:08.757Z,22.72
2018-07-08T08:14:37.172Z,22.81
2018-07-08T08:17:05.631Z,22.82
2018-07-08T08:19:34.059Z,23.22
2018-07-08T08:22:02.545Z,23.77
2018-07-08T08:24:31.003Z,23.45
2018-07-08T08:26:59.422Z,23.73
2018-07-08T08:29:28.083Z,23.74
2018-07-08T08:31:56.515Z,23.98
2018-07-08T08:34:57.655Z,24.19
2018-07-08T08:37:28.642Z,24.37
2018-07-08T08:39:57.590Z,24.19
2018-07-08T08:42:26.039Z,24.77
2018-07-08T08:44:55.781Z,24.82
2018-07-08T08:47:24.787Z,25.14
2018-07-08T08:49:53.896Z,25.06
2018-07-08T08:52:22.415Z,25.47
2018-07-08T08:54:50.978Z,25.59
2018-07-08T08:57:19.440Z,25.36
2018-07-08T08:59:47.891Z,26.11
2018-07-08T09:02:16.284Z,26.21
2018-07-08T09:04:45.204Z,25.59
2018-07-08T09:07:14.878Z,25.35
2018-07-08T09:09:43.343Z,25.37
2018-07-08T09:12:12.479Z,24.83
2018-07-08T09:14:41.136Z,24.98
2018-07-08T09:17:09.946Z,25.39
2018-07-08T09:19:38.445Z,26.03
2018-07-08T09:22:07.774Z,26.47
2018-07-08T09:24:36.250Z,26.73
2018-07-08T09:27:05.123Z,26.64
2018-07-08T09:29:33.594Z,26.27
2018-07-08T09:32:02.204Z,26.11
2018-07-08T09:34:31.025Z,26.47
2018-07-08T09:36:59.506Z,26.05
2018-07-08T09:39:28.461Z,25.37
2018-07-08T09:41:56.967Z,26.01
2018-07-08T09:44:25.421Z,27.04
2018-07-08T09:46:53.922Z,26.28
2018-07-08T09:49:22.328Z,26.14
2018-07-08T09:51:50.760Z,26.26
2018-07-08T09:54:19.204Z,26.31
2018-07-08T09:56:47.606Z,27.17
2018-07-08T09:59:16.071Z,27.19
2018-07-08T10:01:46.668Z,26.99
2018-07-08T10:04:17.501Z,26.45
2018-07-08T10:06:46.722Z,26.66
2018-07-08T10:09:16.725Z,26.41
2018-07-08T10:11:45.424Z,26.83
2018-07-08T10:14:15.327Z,26.15
2018-07-08T10:16:44.255Z,26.31
2018-07-08T10:19:13.819Z,26.80
2018-07-08T10:21:42.272Z,27.52
2018-07-08T10:24:11.007Z,27.77
2018-07-08T10:26:39.766Z,27.26
2018-07-08T10:29:08.401Z,26.48
2018-07-08T10:31:52.426Z,27.09
2018-07-08T10:34:21.013Z,26.99
2018-07-08T10:36:49.573Z,26.60
2018-07-08T10:39:18.266Z,26.97
2018-07-08T10:41:46.717Z,27.84
2018-07-08T10:44:15.349Z,27.69
2018-07-08T10:46:44.256Z,27.15
2018-07-08T10:49:12.737Z,27.09
2018-07-08T10:51:41.161Z,27.13
2018-07-08T10:54:09.800Z,26.59
2018-07-08T10:56:38.239Z,27.39
2018-07-08T10:59:06.659Z,26.48
2018-07-08T11:01:35.095Z,28.02
2018-07-08T11:04:03.551Z,27.50
2018-07-08T11:06:31.971Z,27.73
2018-07-08T11:09:00.522Z,28.21
2018-07-08T11:11:28.970Z,27.45
2018-07-08T11:13:57.418Z,27.43
2018-07-08T11:16:25.887Z,27.15
2018-07-08T11:18:54.356Z,27.14
2018-07-08T11:21:22.835Z,27.43
2018-07-08T11:23:51.247Z,27.90
2018-07-08T11:26:19.727Z,28.33
2018-07-08T11:28:48.139Z,28.05
2018-07-08T11:31:16.601Z,27.83
2018-07-08T11:33:45.030Z,27.35
2018-07-08T11:36:13.435Z,28.00
2018-07-08T11:38:41.889Z,28.41
2018-07-08T11:41:10.321Z,28.57
2018-07-08T11:43:38.794Z,28.83
2018-07-08T11:46:07.220Z,28.96
2018-07-08T11:48:35.640Z,28.81
2018-07-08T11:51:04.076Z,28.58
2018-07-08T11:53:32.763Z,28.81
2018-07-08T11:56:01.208Z,29.46
2018-07-08T11:58:29.652Z,29.96
2018-07-08T12:00:58.067Z,29.38
2018-07-08T12:03:27.034Z,28.96
2018-07-08T12:05:55.462Z,28.97
2018-07-08T12:08:23.898Z,30.19
2018-07-08T12:10:52.313Z,30.09
2018-07-08T12:13:20.842Z,30.34
2018-07-08T12:15:49.287Z,30.17
2018-07-08T12:18:17.681Z,30.27
2018-07-08T12:21:16.807Z,29.30
2018-07-08T12:23:45.263Z,30.34
2018-07-08T12:26:13.707Z,30.77
2018-07-08T12:28:42.132Z,31.76
2018-07-08T12:31:10.565Z,31.33
2018-07-08T12:33:39.152Z,31.37
2018-07-08T12:36:08.766Z,31.67
2018-07-08T12:38:37.483Z,31.31
2018-07-08T12:41:06.076Z,29.85
2018-07-08T12:43:34.879Z,31.56
2018-07-08T12:46:03.503Z,31.07
2018-07-08T12:48:32.002Z,30.42
2018-07-08T12:51:00.507Z,31.30
2018-07-08T12:53:29.288Z,31.24
2018-07-08T12:55:57.745Z,31.71
2018-07-08T12:58:26.592Z,31.88
2018-07-08T13:00:55.047Z,32.09
2018-07-08T13:03:23.964Z,31.89
2018-07-08T13:05:52.400Z,31.92
2018-07-08T13:08:21.049Z,31.23
2018-07-08T13:10:49.467Z,30.29
2018-07-08T13:13:17.924Z,28.88
2018-07-08T13:15:46.343Z,28.51
2018-07-08T13:18:14.801Z,27.56
2018-07-08T13:20:43.277Z,30.54
2018-07-08T13:23:11.773Z,31.54
2018-07-08T13:25:40.276Z,30.79
2018-07-08T13:28:08.735Z,31.89
2018-07-08T13:30:37.191Z,30.73
2018-07-08T13:33:06.093Z,31.35
2018-07-08T13:39:07.663Z,30.49
2018-07-08T13:41:36.065Z,32.76
2018-07-08T13:44:04.803Z,32.63
2018-07-08T13:47:35.883Z,32.15
2018-07-08T13:50:04.813Z,29.77
2018-07-08T13:52:33.321Z,29.19
2018-07-08T13:55:01.721Z,29.46
2018-07-08T13:57:30.151Z,28.17
2018-07-08T13:59:58.563Z,28.40
2018-07-08T14:02:27.022Z,28.29
2018-07-08T14:04:55.888Z,27.80
2018-07-08T14:07:24.495Z,27.79
2018-07-08T14:09:52.899Z,28.93
2018-07-08T14:12:21.476Z,30.23
2018-07-08T14:14:49.949Z,28.51
2018-07-08T14:17:18.396Z,27.98
2018-07-08T14:19:46.869Z,27.59
2018-07-08T14:22:15.282Z,27.35
2018-07-08T14:24:43.860Z,27.47
2018-07-08T14:27:12.415Z,27.41
2018-07-08T14:29:40.820Z,27.27
2018-07-08T14:32:09.292Z,27.16
2018-07-08T14:34:37.724Z,26.95
2018-07-08T14:37:06.732Z,27.18
2018-07-08T14:39:35.179Z,26.95
2018-07-08T14:42:03.575Z,27.10
2018-07-08T14:44:32.001Z,27.32
2018-07-08T14:47:00.692Z,27.12
2018-07-08T14:49:30.063Z,27.34
2018-07-08T14:51:58.683Z,27.25
2018-07-08T14:54:27.359Z,27.31
2018-07-08T14:56:56.071Z,27.28
2018-07-08T14:59:24.463Z,26.73
2018-07-08T15:01:52.955Z,27.13
2018-07-08T15:04:21.399Z,26.79
2018-07-08T15:06:50.151Z,27.43
2018-07-08T15:09:18.900Z,26.72
2018-07-08T15:11:47.324Z,26.78
2018-07-08T15:14:15.768Z,26.50
2018-07-08T15:16:44.199Z,26.59
2018-07-08T15:19:12.640Z,26.66
2018-07-08T15:21:41.478Z,26.36
2018-07-08T15:24:09.838Z,26.62
2018-07-08T15:26:38.374Z,26.59
2018-07-08T15:29:06.875Z,26.35
2018-07-08T15:31:36.789Z,26.57
2018-07-08T15:34:05.239Z,27.93
2018-07-08T15:36:34.252Z,26.84
2018-07-08T15:39:02.690Z,26.96
2018-07-08T15:41:31.370Z,27.22
2018-07-08T15:43:59.798Z,27.22
2018-07-08T15:46:28.308Z,27.55
2018-07-08T15:48:57.311Z,27.05
2018-07-08T15:51:25.775Z,27.42
2018-07-08T15:53:54.236Z,27.04
2018-07-08T15:56:22.662Z,27.27
2018-07-08T15:58:51.095Z,27.32
2018-07-08T16:01:19.826Z,27.39
2018-07-08T16:03:48.310Z,27.49
2018-07-08T16:08:59.517Z,27.92
2018-07-08T16:11:29.408Z,28.04
2018-07-08T16:13:58.021Z,27.47
2018-07-08T16:16:26.875Z,27.23
2018-07-08T16:18:55.438Z,27.40
2018-07-08T16:21:23.782Z,27.27
2018-07-08T16:23:52.232Z,27.60
2018-07-08T16:26:20.728Z,27.25
2018-07-08T16:28:49.259Z,27.10
2018-07-08T16:31:17.699Z,27.58
2018-07-08T16:33:46.173Z,28.04
2018-07-08T16:36:14.663Z,27.29
2018-07-08T16:38:43.111Z,27.45
2018-07-08T16:41:11.593Z,27.86
2018-07-08T16:43:40.045Z,27.17
2018-07-08T16:46:08.515Z,27.41
2018-07-08T16:48:36.943Z,27.39
2018-07-08T16:51:05.446Z,27.46
2018-07-08T16:53:33.920Z,30.55
2018-07-08T16:56:02.654Z,29.17
2018-07-08T16:58:31.300Z,29.16
2018-07-08T17:00:59.730Z,28.92
2018-07-08T17:03:28.183Z,30.84
2018-07-08T17:05:56.788Z,31.48
2018-07-08T17:08:25.362Z,32.02
2018-07-08T17:10:53.723Z,31.37
2018-07-08T17:13:22.560Z,32.29
2018-07-08T17:15:51.003Z,32.89
2018-07-08T17:18:19.411Z,33.05
2018-07-08T17:20:48.179Z,29.64
2018-07-08T17:23:16.647Z,28.69
2018-07-08T17:25:45.125Z,28.29
2018-07-08T17:28:13.747Z,27.83
2018-07-08T17:30:42.183Z,26.84
2018-07-08T17:33:10.853Z,27.22
2018-07-08T17:35:39.322Z,26.74
2018-07-08T17:38:07.751Z,26.43
2018-07-08T17:40:36.282Z,26.49
2018-07-08T17:43:05.227Z,26.70
2018-07-08T17:45:33.692Z,26.57
2018-07-08T17:48:02.206Z,26.57
2018-07-08T17:50:30.709Z,26.43
2018-07-08T17:52:59.451Z,26.06
2018-07-08T17:55:27.923Z,26.12
2018-07-08T17:57:56.331Z,26.16
2018-07-08T18:00:25.156Z,26.59
2018-07-08T18:02:53.611Z,25.95
2018-07-08T18:05:22.024Z,25.95
2018-07-08T18:07:50.503Z,26.52
2018-07-08T18:10:19.257Z,25.84
2018-07-08T18:12:47.744Z,25.77
2018-07-08T18:15:16.179Z,25.81
2018-07-08T18:17:44.639Z,25.75
2018-07-08T18:20:13.099Z,25.70
2018-07-08T18:22:41.844Z,25.57
2018-07-08T18:25:10.352Z,25.63
2018-07-08T18:27:38.947Z,25.60
2018-07-08T18:30:07.610Z,25.49
2018-07-08T18:32:36.106Z,25.35
2018-07-08T18:35:04.974Z,25.29
2018-07-08T18:37:33.716Z,25.09
2018-07-08T18:40:02.532Z,25.19
2018-07-08T18:42:31.156Z,24.96
2018-07-08T18:44:59.613Z,24.84
2018-07-08T18:47:28.036Z,24.87
2018-07-08T18:49:56.509Z,26.12
2018-07-08T18:52:24.904Z,24.97
2018-07-08T18:54:53.344Z,24.89
2018-07-08T18:57:21.781Z,24.69
2018-07-08T18:59:50.244Z,24.60
2018-07-08T19:02:18.740Z,24.53
2018-07-08T19:04:47.224Z,24.53
2018-07-08T19:07:15.875Z,24.48
2018-07-08T19:09:44.342Z,24.45
2018-07-08T19:12:12.795Z,24.47
2018-07-08T19:14:41.260Z,24.46
2018-07-08T19:17:09.743Z,24.44
2018-07-08T19:19:38.196Z,24.38
2018-07-08T19:22:06.652Z,24.36
2018-07-08T19:24:35.544Z,24.31
2018-07-08T19:27:03.977Z,24.24
2018-07-08T19:29:32.410Z,24.33
2018-07-08T19:32:00.861Z,24.22
2018-07-08T19:34:29.534Z,24.32
2018-07-08T19:36:58.077Z,24.20
2018-07-08T19:39:26.839Z,24.11
2018-07-08T19:41:55.336Z,24.01
2018-07-08T19:44:23.867Z,23.99
2018-07-08T19:46:52.342Z,23.97
2018-07-08T19:49:21.092Z,23.92
2018-07-08T19:51:50.471Z,23.86
2018-07-08T19:54:18.903Z,23.76
2018-07-08T19:56:47.344Z,23.80
2018-07-08T19:59:15.839Z,23.66
2018-07-08T20:01:44.345Z,23.58
2018-07-08T20:04:12.783Z,23.63
2018-07-08T20:06:41.256Z,23.62
2018-07-08T20:09:09.694Z,23.57
2018-07-08T20:11:38.300Z,23.50
2018-07-08T20:14:06.847Z,23.43
2018-07-08T20:16:35.297Z,23.59
2018-07-08T20:19:03.763Z,23.52
2018-07-08T20:21:32.400Z,23.36
2018-07-08T20:24:01.292Z,23.39
2018-07-08T20:26:29.771Z,23.34
2018-07-08T20:28:58.192Z,23.41
2018-07-08T20:31:26.648Z,23.36
2018-07-08T20:33:55.103Z,23.36
2018-07-08T20:36:23.608Z,23.32
2018-07-08T20:38:52.053Z,23.24
2018-07-08T20:41:20.496Z,23.23
2018-07-08T20:43:49.179Z,23.13
2018-07-08T20:46:17.589Z,23.04
2018-07-08T20:48:46.006Z,23.05
2018-07-08T20:51:14.467Z,23.01
2018-07-08T20:53:42.908Z,23.10
2018-07-08T20:56:11.357Z,23.00
2018-07-08T20:58:39.758Z,22.91
2018-07-08T21:01:08.422Z,22.88
2018-07-08T21:03:37.109Z,22.90
2018-07-08T21:06:05.557Z,22.93
2018-07-08T21:08:34.036Z,22.93
2018-07-08T21:11:02.513Z,22.94
2018-07-08T21:13:30.954Z,22.95
2018-07-08T21:15:59.645Z,22.86
2018-07-08T21:18:28.158Z,22.88
2018-07-08T21:20:56.598Z,22.87
2018-07-08T21:23:25.066Z,23.06
2018-07-08T21:25:53.495Z,22.86
2018-07-08T21:28:21.969Z,22.92
2018-07-08T21:30:50.551Z,22.70
2018-07-08T21:33:19.676Z,22.34
2018-07-08T21:35:48.201Z,22.61
2018-07-08T21:38:16.651Z,22.60
2018-07-08T21:40:45.108Z,22.54
2018-07-08T21:43:13.541Z,23.49
2018-07-08T21:45:41.991Z,22.49
2018-07-08T21:48:10.764Z,22.40
2018-07-08T21:50:39.227Z,23.70
2018-07-08T21:53:07.651Z,23.92
2018-07-08T21:55:36.355Z,23.86
2018-07-08T21:58:05.173Z,23.69
2018-07-08T22:00:34.000Z,23.99
2018-07-08T22:03:02.795Z,23.94
2018-07-08T22:05:32.319Z,23.98
2018-07-08T22:08:04.924Z,23.90
2018-07-08T22:10:34.387Z,23.95
2018-07-08T22:13:03.976Z,23.87
2018-07-08T22:15:32.471Z,23.60
2018-07-08T22:18:00.979Z,23.36
2018-07-08T22:20:29.480Z,23.20
2018-07-08T22:22:57.900Z,23.25
2018-07-08T22:25:26.327Z,22.77
2018-07-08T22:27:54.735Z,22.56
2018-07-08T22:30:23.244Z,22.83
2018-07-08T22:32:51.711Z,23.00
2018-07-08T22:35:20.177Z,22.62
2018-07-08T22:37:48.649Z,22.65
2018-07-08T22:40:17.100Z,22.39
2018-07-08T22:42:45.567Z,22.41
2018-07-08T22:45:14.017Z,22.26
2018-07-08T22:47:42.495Z,22.19
2018-07-08T22:50:10.951Z,22.29
2018-07-08T22:52:39.368Z,22.35
2018-07-08T22:55:07.799Z,22.50
2018-07-08T22:57:36.216Z,22.40
2018-07-08T23:00:16.084Z,22.49
2018-07-08T23:02:46.827Z,22.48
2018-07-08T23:05:15.996Z,22.53
2018-07-08T23:07:44.454Z,22.55
2018-07-08T23:10:13.075Z,22.47
2018-07-08T23:12:41.524Z,22.21
2018-07-08T23:15:09.991Z,22.10
2018-07-08T23:17:38.501Z,22.08
2018-07-08T23:20:06.970Z,22.09
2018-07-08T23:22:46.427Z,21.99
2018-07-08T23:25:14.859Z,22.22
2018-07-08T23:27:43.495Z,22.27
2018-07-08T23:30:11.908Z,22.27
2018-07-08T23:32:40.670Z,22.18
2018-07-08T23:35:09.078Z,22.03
2018-07-08T23:37:37.697Z,21.92
2018-07-08T23:40:06.091Z,21.96
2018-07-08T23:42:35.592Z,22.00
2018-07-08T23:45:04.053Z,22.05
2018-07-08T23:47:32.506Z,22.20
2018-07-08T23:50:00.975Z,22.18
2018-07-08T23:52:29.418Z,22.12
2018-07-08T23:54:57.907Z,22.11
2018-07-08T23:57:26.381Z,22.06
2018-07-08T23:59:54.810Z,22.08
